Kezdőlap
METAR-TAF:

METAR-TAF

Repülőterek :

El Paso, Texas, Amerikai Egyesült Államok

földrajzi szélesség: 31-48-40N, földrajzi hosszúság: 106-22-33W, magasság: 1206 m

Jelenlegi meteorológiai megfigyelések

A jelentés 51 perccel ezelõtt készült, 00:51 UTC
Délkeleti szél 13 kt
Hőmérséklet 28°C
Páratartalom 42%
Légköri nyomás 1018 hPa
Látótávolság: 16.1 km
Szórványos felhőzet 6000 lábon
Szórványos felhőzet 8000 lábon

METAR: KELP 230051Z 13013KT 10SM SCT060 SCT080 28/14 A3005 RMK AO2 SLP107 T02830144

Idő: 20:42 (01:42 UTC)

Előrejelzés

A jelentés 2 órával és 15 perccel ezelõtt készült, 23:27 UTC
Az előrejelzés 23-én 00 óra UTC és 23-én 24 óra UTC között érvényes
Keleti szél 8 kt
Látótávolság: 10 km
Szórványos felhőzet 6000 lábon
23-én 0300 órától UTC szerint
Keleti szél 6 kt
Látótávolság: 10 km
Kevés felhő 11000 lábon

TAF: KELP 222327Z 2300/2324 10008KT P6SM SCT060 FM230300 08006KT P6SM FEW110

Meteorológiai megfigyelések és előrejelzések több, mint 4000 repülőtéren (METAR és TAF jelentéseket).

A térképen piros és sárga pontok jelzik az elérhető meteorológiai állomásokat.

Mozgassa az egeret a pont fölött, hogy megjelenjen az állomás neve.

Azután kattintson az időjárási megfigyelések és előrejelzések megtekintéséhez.

A térkép megváltoztatása: kattintson a fekete keresztel jelölt zöld gombra ráközelítéshez, a vonallal jelölt zöld gombra távolításhoz, vagy a zöld nyilakra a szomszédos térképek eléréséhez.


METAR-TAF: